Terminal Aerodrome Forecast
Issued by NWS Tampa Bay Area, FL

Home | Current Version | Previous Version | Text Only | Print | Product List | Glossary On
Versions: 1 2 3 4 5 6 7 8 9 10 11 12 13 14 15 16 17 18 19 20 21 22 23 24 25 26 27 28 29 30 31
511
FTUS42 KTBW 171131
TAFTPA
TAF
KTPA 171131Z 1712/1812 05006KT P6SM VCSH FEW007 BKN045 OVC130
     FM171400 05009KT P6SM SCT025 BKN050 OVC130
     FM171800 05010G15KT P6SM VCSH SCT025 BKN040 OVC100
     FM180000 04010KT P6SM BKN040 OVC100=

USA.gov is the U.S. government's official web portal to all federal, state and local government web resources and services.